sensor_id;sensor_type;location;lat;lon;timestamp;P1;durP1;ratioP1;P2;durP2;ratioP2
11125;SDS011;5617;54.046;10.676;2023-06-14T00:01:05;7.80;;;3.60;;
11125;SDS011;5617;54.046;10.676;2023-06-14T00:03:13;5.87;;;3.83;;
11125;SDS011;5617;54.046;10.676;2023-06-14T00:05:23;4.80;;;3.70;;
11125;SDS011;5617;54.046;10.676;2023-06-14T00:07:34;5.33;;;4.03;;
11125;SDS011;5617;54.046;10.676;2023-06-14T00:09:42;6.73;;;4.10;;
11125;SDS011;5617;54.046;10.676;2023-06-14T00:11:50;7.13;;;4.03;;
11125;SDS011;5617;54.046;10.676;2023-06-14T00:14:00;5.40;;;3.73;;
11125;SDS011;5617;54.046;10.676;2023-06-14T00:16:08;6.13;;;3.73;;
11125;SDS011;5617;54.046;10.676;2023-06-14T00:18:16;6.73;;;4.03;;
11125;SDS011;5617;54.046;10.676;2023-06-14T00:20:24;6.57;;;4.33;;
11125;SDS011;5617;54.046;10.676;2023-06-14T00:22:32;6.30;;;3.77;;
11125;SDS011;5617;54.046;10.676;2023-06-14T00:24:42;7.87;;;4.13;;
11125;SDS011;5617;54.046;10.676;2023-06-14T00:26:50;7.53;;;3.90;;
11125;SDS011;5617;54.046;10.676;2023-06-14T00:28:57;6.63;;;4.37;;
11125;SDS011;5617;54.046;10.676;2023-06-14T00:31:06;6.77;;;4.40;;
11125;SDS011;5617;54.046;10.676;2023-06-14T00:33:14;6.93;;;4.50;;
11125;SDS011;5617;54.046;10.676;2023-06-14T00:35:26;6.07;;;4.40;;
11125;SDS011;5617;54.046;10.676;2023-06-14T00:40:55;5.50;;;4.07;;
11125;SDS011;5617;54.046;10.676;2023-06-14T00:43:04;6.47;;;4.63;;
11125;SDS011;5617;54.046;10.676;2023-06-14T00:45:12;6.73;;;4.60;;
11125;SDS011;5617;54.046;10.676;2023-06-14T00:47:25;7.73;;;4.80;;
11125;SDS011;5617;54.046;10.676;2023-06-14T00:49:38;7.67;;;4.57;;
11125;SDS011;5617;54.046;10.676;2023-06-14T00:51:46;7.03;;;4.53;;
11125;SDS011;5617;54.046;10.676;2023-06-14T00:53:57;6.20;;;4.60;;
11125;SDS011;5617;54.046;10.676;2023-06-14T00:56:06;5.07;;;4.60;;
11125;SDS011;5617;54.046;10.676;2023-06-14T00:58:16;7.07;;;4.57;;
11125;SDS011;5617;54.046;10.676;2023-06-14T01:00:24;5.97;;;4.77;;
11125;SDS011;5617;54.046;10.676;2023-06-14T01:02:37;6.03;;;4.77;;
11125;SDS011;5617;54.046;10.676;2023-06-14T01:04:46;6.30;;;4.60;;
11125;SDS011;5617;54.046;10.676;2023-06-14T01:06:57;6.33;;;4.30;;
11125;SDS011;5617;54.046;10.676;2023-06-14T01:09:21;6.67;;;4.50;;
11125;SDS011;5617;54.046;10.676;2023-06-14T01:11:38;6.80;;;4.97;;
11125;SDS011;5617;54.046;10.676;2023-06-14T01:13:55;6.87;;;5.10;;
11125;SDS011;5617;54.046;10.676;2023-06-14T01:16:04;7.17;;;4.70;;
11125;SDS011;5617;54.046;10.676;2023-06-14T01:18:15;6.57;;;4.70;;
11125;SDS011;5617;54.046;10.676;2023-06-14T01:20:26;6.70;;;4.93;;
11125;SDS011;5617;54.046;10.676;2023-06-14T01:22:36;5.83;;;4.77;;
11125;SDS011;5617;54.046;10.676;2023-06-14T01:24:46;7.63;;;5.20;;
11125;SDS011;5617;54.046;10.676;2023-06-14T01:26:56;7.27;;;4.67;;
11125;SDS011;5617;54.046;10.676;2023-06-14T01:29:04;5.40;;;4.27;;
11125;SDS011;5617;54.046;10.676;2023-06-14T01:31:16;6.50;;;4.17;;
11125;SDS011;5617;54.046;10.676;2023-06-14T01:33:26;6.40;;;4.30;;
11125;SDS011;5617;54.046;10.676;2023-06-14T01:35:36;4.83;;;3.77;;
11125;SDS011;5617;54.046;10.676;2023-06-14T01:38:11;5.20;;;4.20;;
11125;SDS011;5617;54.046;10.676;2023-06-14T01:40:23;6.40;;;4.07;;
11125;SDS011;5617;54.046;10.676;2023-06-14T01:42:32;8.80;;;4.47;;
11125;SDS011;5617;54.046;10.676;2023-06-14T01:44:41;6.43;;;3.90;;
11125;SDS011;5617;54.046;10.676;2023-06-14T01:46:50;7.27;;;4.00;;
11125;SDS011;5617;54.046;10.676;2023-06-14T01:48:59;6.90;;;4.17;;
11125;SDS011;5617;54.046;10.676;2023-06-14T01:51:08;7.43;;;4.07;;
11125;SDS011;5617;54.046;10.676;2023-06-14T01:53:17;5.23;;;4.13;;
11125;SDS011;5617;54.046;10.676;2023-06-14T01:55:26;4.77;;;3.63;;
11125;SDS011;5617;54.046;10.676;2023-06-14T01:57:36;5.23;;;4.00;;
11125;SDS011;5617;54.046;10.676;2023-06-14T01:59:45;5.70;;;4.10;;
11125;SDS011;5617;54.046;10.676;2023-06-14T02:01:54;6.83;;;4.37;;
11125;SDS011;5617;54.046;10.676;2023-06-14T02:04:03;7.67;;;4.37;;
11125;SDS011;5617;54.046;10.676;2023-06-14T02:06:12;5.43;;;3.70;;
11125;SDS011;5617;54.046;10.676;2023-06-14T02:08:22;4.90;;;3.90;;
11125;SDS011;5617;54.046;10.676;2023-06-14T02:10:33;7.70;;;3.80;;
11125;SDS011;5617;54.046;10.676;2023-06-14T02:12:44;6.03;;;4.10;;
11125;SDS011;5617;54.046;10.676;2023-06-14T02:14:52;7.60;;;4.00;;
11125;SDS011;5617;54.046;10.676;2023-06-14T02:17:00;3.97;;;3.40;;
11125;SDS011;5617;54.046;10.676;2023-06-14T02:19:08;5.80;;;3.73;;
11125;SDS011;5617;54.046;10.676;2023-06-14T02:21:15;5.20;;;3.43;;
11125;SDS011;5617;54.046;10.676;2023-06-14T02:23:25;5.20;;;4.10;;
11125;SDS011;5617;54.046;10.676;2023-06-14T02:25:37;6.23;;;3.47;;
11125;SDS011;5617;54.046;10.676;2023-06-14T02:27:46;6.43;;;3.70;;
11125;SDS011;5617;54.046;10.676;2023-06-14T02:29:54;5.07;;;3.60;;
11125;SDS011;5617;54.046;10.676;2023-06-14T02:32:01;5.53;;;3.77;;
11125;SDS011;5617;54.046;10.676;2023-06-14T02:34:11;6.20;;;3.80;;
11125;SDS011;5617;54.046;10.676;2023-06-14T02:36:22;5.20;;;3.30;;
11125;SDS011;5617;54.046;10.676;2023-06-14T02:38:30;4.07;;;3.50;;
11125;SDS011;5617;54.046;10.676;2023-06-14T02:40:40;4.03;;;3.53;;
11125;SDS011;5617;54.046;10.676;2023-06-14T02:42:47;6.33;;;3.80;;
11125;SDS011;5617;54.046;10.676;2023-06-14T02:44:55;6.50;;;3.83;;
11125;SDS011;5617;54.046;10.676;2023-06-14T02:47:03;5.23;;;3.63;;
11125;SDS011;5617;54.046;10.676;2023-06-14T02:49:11;6.27;;;4.00;;
11125;SDS011;5617;54.046;10.676;2023-06-14T02:51:19;6.60;;;3.80;;
11125;SDS011;5617;54.046;10.676;2023-06-14T02:53:27;5.40;;;3.90;;
11125;SDS011;5617;54.046;10.676;2023-06-14T02:55:41;6.47;;;3.80;;
11125;SDS011;5617;54.046;10.676;2023-06-14T02:57:50;5.13;;;4.13;;
11125;SDS011;5617;54.046;10.676;2023-06-14T02:59:59;5.13;;;4.17;;
11125;SDS011;5617;54.046;10.676;2023-06-14T03:02:09;4.17;;;3.77;;
11125;SDS011;5617;54.046;10.676;2023-06-14T03:04:17;6.07;;;3.93;;
11125;SDS011;5617;54.046;10.676;2023-06-14T03:06:26;7.70;;;4.00;;
11125;SDS011;5617;54.046;10.676;2023-06-14T03:08:36;4.90;;;3.90;;
11125;SDS011;5617;54.046;10.676;2023-06-14T03:10:47;7.10;;;4.23;;
11125;SDS011;5617;54.046;10.676;2023-06-14T03:12:57;4.87;;;3.77;;
11125;SDS011;5617;54.046;10.676;2023-06-14T03:15:05;5.87;;;3.80;;
11125;SDS011;5617;54.046;10.676;2023-06-14T03:17:15;7.20;;;3.70;;
11125;SDS011;5617;54.046;10.676;2023-06-14T03:19:25;5.83;;;3.80;;
11125;SDS011;5617;54.046;10.676;2023-06-14T03:21:34;5.50;;;3.87;;
11125;SDS011;5617;54.046;10.676;2023-06-14T03:23:43;7.53;;;4.33;;
11125;SDS011;5617;54.046;10.676;2023-06-14T03:25:52;7.27;;;3.97;;
11125;SDS011;5617;54.046;10.676;2023-06-14T03:28:02;6.13;;;4.20;;
11125;SDS011;5617;54.046;10.676;2023-06-14T03:30:11;5.80;;;4.53;;
11125;SDS011;5617;54.046;10.676;2023-06-14T03:32:20;5.43;;;3.90;;
11125;SDS011;5617;54.046;10.676;2023-06-14T03:34:30;5.83;;;3.90;;
11125;SDS011;5617;54.046;10.676;2023-06-14T03:36:38;5.20;;;3.63;;
11125;SDS011;5617;54.046;10.676;2023-06-14T03:38:47;4.37;;;3.97;;
11125;SDS011;5617;54.046;10.676;2023-06-14T03:40:57;4.90;;;3.80;;
11125;SDS011;5617;54.046;10.676;2023-06-14T03:43:04;7.97;;;4.30;;
11125;SDS011;5617;54.046;10.676;2023-06-14T03:45:12;4.50;;;3.70;;
11125;SDS011;5617;54.046;10.676;2023-06-14T03:47:23;6.67;;;3.90;;
11125;SDS011;5617;54.046;10.676;2023-06-14T03:49:31;5.77;;;3.90;;
11125;SDS011;5617;54.046;10.676;2023-06-14T03:51:39;8.03;;;4.07;;
11125;SDS011;5617;54.046;10.676;2023-06-14T03:53:49;5.60;;;3.60;;
11125;SDS011;5617;54.046;10.676;2023-06-14T03:56:17;6.47;;;4.07;;
11125;SDS011;5617;54.046;10.676;2023-06-14T03:58:26;5.07;;;3.83;;
11125;SDS011;5617;54.046;10.676;2023-06-14T04:00:34;6.17;;;3.60;;
11125;SDS011;5617;54.046;10.676;2023-06-14T04:02:46;6.57;;;4.10;;
11125;SDS011;5617;54.046;10.676;2023-06-14T04:04:53;4.70;;;3.70;;
11125;SDS011;5617;54.046;10.676;2023-06-14T04:07:02;6.57;;;3.80;;
11125;SDS011;5617;54.046;10.676;2023-06-14T04:09:10;7.90;;;3.83;;
11125;SDS011;5617;54.046;10.676;2023-06-14T04:11:19;5.07;;;3.50;;
11125;SDS011;5617;54.046;10.676;2023-06-14T04:13:26;6.20;;;4.10;;
11125;SDS011;5617;54.046;10.676;2023-06-14T04:15:40;8.33;;;4.30;;
11125;SDS011;5617;54.046;10.676;2023-06-14T04:18:05;6.90;;;3.77;;
11125;SDS011;5617;54.046;10.676;2023-06-14T04:20:12;4.83;;;3.80;;
11125;SDS011;5617;54.046;10.676;2023-06-14T04:22:20;7.70;;;4.30;;
11125;SDS011;5617;54.046;10.676;2023-06-14T04:24:28;7.03;;;4.30;;
11125;SDS011;5617;54.046;10.676;2023-06-14T04:26:39;8.70;;;3.60;;
11125;SDS011;5617;54.046;10.676;2023-06-14T04:32:21;7.43;;;4.10;;
11125;SDS011;5617;54.046;10.676;2023-06-14T04:34:32;4.00;;;3.53;;
11125;SDS011;5617;54.046;10.676;2023-06-14T04:36:40;5.27;;;3.40;;
11125;SDS011;5617;54.046;10.676;2023-06-14T04:38:55;5.03;;;3.10;;
11125;SDS011;5617;54.046;10.676;2023-06-14T04:41:10;4.00;;;2.87;;
11125;SDS011;5617;54.046;10.676;2023-06-14T04:43:19;3.07;;;2.60;;
11125;SDS011;5617;54.046;10.676;2023-06-14T04:45:31;4.93;;;2.87;;
11125;SDS011;5617;54.046;10.676;2023-06-14T04:47:39;3.90;;;2.80;;
11125;SDS011;5617;54.046;10.676;2023-06-14T04:49:47;4.63;;;2.57;;
11125;SDS011;5617;54.046;10.676;2023-06-14T04:51:57;4.33;;;2.60;;
11125;SDS011;5617;54.046;10.676;2023-06-14T04:54:05;5.13;;;2.57;;
11125;SDS011;5617;54.046;10.676;2023-06-14T04:56:16;4.00;;;2.50;;
11125;SDS011;5617;54.046;10.676;2023-06-14T04:58:25;2.90;;;2.60;;
11125;SDS011;5617;54.046;10.676;2023-06-14T05:00:36;4.90;;;2.70;;
11125;SDS011;5617;54.046;10.676;2023-06-14T05:02:43;4.27;;;2.40;;
11125;SDS011;5617;54.046;10.676;2023-06-14T05:04:57;3.23;;;2.60;;
11125;SDS011;5617;54.046;10.676;2023-06-14T05:07:08;3.57;;;2.40;;
11125;SDS011;5617;54.046;10.676;2023-06-14T05:09:22;3.20;;;2.40;;
11125;SDS011;5617;54.046;10.676;2023-06-14T05:11:29;4.13;;;2.60;;
11125;SDS011;5617;54.046;10.676;2023-06-14T05:13:40;4.53;;;2.83;;
11125;SDS011;5617;54.046;10.676;2023-06-14T05:15:48;3.33;;;2.40;;
11125;SDS011;5617;54.046;10.676;2023-06-14T05:17:56;4.53;;;2.60;;
11125;SDS011;5617;54.046;10.676;2023-06-14T05:20:06;2.60;;;2.40;;
11125;SDS011;5617;54.046;10.676;2023-06-14T05:22:16;4.17;;;2.57;;
11125;SDS011;5617;54.046;10.676;2023-06-14T05:24:24;3.20;;;2.57;;
11125;SDS011;5617;54.046;10.676;2023-06-14T05:26:35;4.73;;;2.60;;
11125;SDS011;5617;54.046;10.676;2023-06-14T05:28:45;4.20;;;2.40;;
11125;SDS011;5617;54.046;10.676;2023-06-14T05:30:52;3.60;;;2.20;;
11125;SDS011;5617;54.046;10.676;2023-06-14T05:33:02;4.77;;;2.53;;
11125;SDS011;5617;54.046;10.676;2023-06-14T05:35:10;3.30;;;2.33;;
11125;SDS011;5617;54.046;10.676;2023-06-14T05:37:20;4.03;;;2.30;;
11125;SDS011;5617;54.046;10.676;2023-06-14T05:39:27;3.50;;;2.30;;
11125;SDS011;5617;54.046;10.676;2023-06-14T05:41:35;4.13;;;2.40;;
11125;SDS011;5617;54.046;10.676;2023-06-14T05:43:45;4.33;;;2.60;;
11125;SDS011;5617;54.046;10.676;2023-06-14T05:45:52;4.73;;;2.57;;
11125;SDS011;5617;54.046;10.676;2023-06-14T05:48:01;3.07;;;2.37;;
11125;SDS011;5617;54.046;10.676;2023-06-14T05:50:10;4.03;;;2.27;;
11125;SDS011;5617;54.046;10.676;2023-06-14T05:52:18;5.77;;;2.37;;
11125;SDS011;5617;54.046;10.676;2023-06-14T05:54:27;4.90;;;2.57;;
11125;SDS011;5617;54.046;10.676;2023-06-14T05:56:37;4.73;;;2.30;;
11125;SDS011;5617;54.046;10.676;2023-06-14T05:58:46;2.70;;;2.00;;
11125;SDS011;5617;54.046;10.676;2023-06-14T06:00:54;3.17;;;2.00;;
11125;SDS011;5617;54.046;10.676;2023-06-14T06:03:04;3.27;;;2.00;;
11125;SDS011;5617;54.046;10.676;2023-06-14T06:05:15;2.73;;;2.40;;
11125;SDS011;5617;54.046;10.676;2023-06-14T06:07:24;5.33;;;2.43;;
11125;SDS011;5617;54.046;10.676;2023-06-14T06:09:32;3.90;;;2.03;;
11125;SDS011;5617;54.046;10.676;2023-06-14T06:11:42;3.37;;;1.90;;
11125;SDS011;5617;54.046;10.676;2023-06-14T06:14:01;3.67;;;2.20;;
11125;SDS011;5617;54.046;10.676;2023-06-14T06:16:09;3.80;;;2.40;;
11125;SDS011;5617;54.046;10.676;2023-06-14T06:18:18;3.57;;;2.30;;
11125;SDS011;5617;54.046;10.676;2023-06-14T06:20:26;4.00;;;2.40;;
11125;SDS011;5617;54.046;10.676;2023-06-14T06:22:39;3.23;;;2.20;;
11125;SDS011;5617;54.046;10.676;2023-06-14T06:24:47;4.00;;;2.27;;
11125;SDS011;5617;54.046;10.676;2023-06-14T06:26:55;2.27;;;2.07;;
11125;SDS011;5617;54.046;10.676;2023-06-14T06:29:08;3.83;;;2.13;;
11125;SDS011;5617;54.046;10.676;2023-06-14T06:31:16;4.80;;;2.57;;
11125;SDS011;5617;54.046;10.676;2023-06-14T06:33:24;3.43;;;2.10;;
11125;SDS011;5617;54.046;10.676;2023-06-14T06:35:33;3.63;;;2.27;;
11125;SDS011;5617;54.046;10.676;2023-06-14T06:37:43;3.20;;;2.40;;
11125;SDS011;5617;54.046;10.676;2023-06-14T06:39:51;4.50;;;2.17;;
11125;SDS011;5617;54.046;10.676;2023-06-14T06:41:58;4.40;;;2.17;;
11125;SDS011;5617;54.046;10.676;2023-06-14T06:44:06;3.03;;;1.77;;
11125;SDS011;5617;54.046;10.676;2023-06-14T06:46:15;3.27;;;2.03;;
11125;SDS011;5617;54.046;10.676;2023-06-14T06:48:24;3.07;;;1.80;;
11125;SDS011;5617;54.046;10.676;2023-06-14T06:50:31;4.10;;;2.10;;
11125;SDS011;5617;54.046;10.676;2023-06-14T06:52:39;3.03;;;2.10;;
11125;SDS011;5617;54.046;10.676;2023-06-14T06:54:47;2.73;;;2.13;;
11125;SDS011;5617;54.046;10.676;2023-06-14T06:56:57;3.13;;;1.90;;
11125;SDS011;5617;54.046;10.676;2023-06-14T06:59:05;2.90;;;1.80;;
11125;SDS011;5617;54.046;10.676;2023-06-14T07:01:14;4.77;;;2.23;;
11125;SDS011;5617;54.046;10.676;2023-06-14T07:03:22;3.93;;;2.17;;
11125;SDS011;5617;54.046;10.676;2023-06-14T07:05:30;3.47;;;1.90;;
11125;SDS011;5617;54.046;10.676;2023-06-14T07:07:41;2.33;;;1.77;;
11125;SDS011;5617;54.046;10.676;2023-06-14T07:09:50;2.03;;;1.83;;
11125;SDS011;5617;54.046;10.676;2023-06-14T07:11:59;1.90;;;1.70;;
11125;SDS011;5617;54.046;10.676;2023-06-14T07:14:06;4.33;;;2.10;;
11125;SDS011;5617;54.046;10.676;2023-06-14T07:16:15;2.43;;;2.23;;
11125;SDS011;5617;54.046;10.676;2023-06-14T07:18:23;3.17;;;2.40;;
11125;SDS011;5617;54.046;10.676;2023-06-14T07:20:31;2.73;;;1.83;;
11125;SDS011;5617;54.046;10.676;2023-06-14T07:22:44;4.07;;;1.90;;
11125;SDS011;5617;54.046;10.676;2023-06-14T07:24:51;3.80;;;1.93;;
11125;SDS011;5617;54.046;10.676;2023-06-14T07:26:59;2.10;;;1.90;;
11125;SDS011;5617;54.046;10.676;2023-06-14T07:29:07;3.80;;;2.03;;
11125;SDS011;5617;54.046;10.676;2023-06-14T07:31:16;2.77;;;2.00;;
11125;SDS011;5617;54.046;10.676;2023-06-14T07:33:25;2.30;;;1.83;;
11125;SDS011;5617;54.046;10.676;2023-06-14T07:35:35;2.70;;;2.00;;
11125;SDS011;5617;54.046;10.676;2023-06-14T07:37:45;4.03;;;2.13;;
11125;SDS011;5617;54.046;10.676;2023-06-14T07:39:53;2.90;;;2.20;;
11125;SDS011;5617;54.046;10.676;2023-06-14T07:42:01;3.00;;;1.80;;
11125;SDS011;5617;54.046;10.676;2023-06-14T07:44:11;3.67;;;1.80;;
11125;SDS011;5617;54.046;10.676;2023-06-14T07:46:20;3.83;;;2.00;;
11125;SDS011;5617;54.046;10.676;2023-06-14T07:48:28;4.43;;;2.03;;
11125;SDS011;5617;54.046;10.676;2023-06-14T07:50:36;2.73;;;1.90;;
11125;SDS011;5617;54.046;10.676;2023-06-14T07:52:44;3.50;;;2.30;;
11125;SDS011;5617;54.046;10.676;2023-06-14T07:54:52;2.87;;;1.90;;
11125;SDS011;5617;54.046;10.676;2023-06-14T07:57:05;2.93;;;2.10;;
11125;SDS011;5617;54.046;10.676;2023-06-14T07:59:15;6.17;;;1.90;;
11125;SDS011;5617;54.046;10.676;2023-06-14T08:01:24;2.80;;;2.00;;
11125;SDS011;5617;54.046;10.676;2023-06-14T08:03:33;4.23;;;1.97;;
11125;SDS011;5617;54.046;10.676;2023-06-14T08:05:42;2.43;;;2.00;;
11125;SDS011;5617;54.046;10.676;2023-06-14T08:07:49;4.23;;;2.00;;
11125;SDS011;5617;54.046;10.676;2023-06-14T08:09:57;3.23;;;2.10;;
11125;SDS011;5617;54.046;10.676;2023-06-14T08:12:05;2.43;;;2.10;;
11125;SDS011;5617;54.046;10.676;2023-06-14T08:14:15;2.40;;;2.10;;
11125;SDS011;5617;54.046;10.676;2023-06-14T08:16:25;4.53;;;2.20;;
11125;SDS011;5617;54.046;10.676;2023-06-14T08:18:33;2.20;;;2.00;;
11125;SDS011;5617;54.046;10.676;2023-06-14T08:20:41;3.67;;;1.90;;
11125;SDS011;5617;54.046;10.676;2023-06-14T08:22:51;4.33;;;2.47;;
11125;SDS011;5617;54.046;10.676;2023-06-14T08:25:03;3.73;;;2.00;;
11125;SDS011;5617;54.046;10.676;2023-06-14T08:27:13;3.57;;;2.20;;
11125;SDS011;5617;54.046;10.676;2023-06-14T08:29:21;3.20;;;1.90;;
11125;SDS011;5617;54.046;10.676;2023-06-14T08:31:33;2.67;;;2.27;;
11125;SDS011;5617;54.046;10.676;2023-06-14T08:33:42;2.90;;;2.13;;
11125;SDS011;5617;54.046;10.676;2023-06-14T08:35:50;2.27;;;1.83;;
11125;SDS011;5617;54.046;10.676;2023-06-14T08:37:58;3.43;;;2.10;;
11125;SDS011;5617;54.046;10.676;2023-06-14T08:40:07;3.90;;;2.03;;
11125;SDS011;5617;54.046;10.676;2023-06-14T08:42:28;4.00;;;2.43;;
11125;SDS011;5617;54.046;10.676;2023-06-14T08:44:38;2.30;;;2.10;;
11125;SDS011;5617;54.046;10.676;2023-06-14T08:46:48;2.97;;;2.20;;
11125;SDS011;5617;54.046;10.676;2023-06-14T08:48:56;3.83;;;2.03;;
11125;SDS011;5617;54.046;10.676;2023-06-14T08:51:06;3.50;;;2.00;;
11125;SDS011;5617;54.046;10.676;2023-06-14T08:53:18;4.83;;;2.43;;
11125;SDS011;5617;54.046;10.676;2023-06-14T08:55:28;3.47;;;2.10;;
11125;SDS011;5617;54.046;10.676;2023-06-14T08:57:41;4.33;;;2.10;;
11125;SDS011;5617;54.046;10.676;2023-06-14T08:59:51;4.33;;;2.30;;
11125;SDS011;5617;54.046;10.676;2023-06-14T09:02:02;2.93;;;2.03;;
11125;SDS011;5617;54.046;10.676;2023-06-14T09:04:20;3.57;;;2.13;;
11125;SDS011;5617;54.046;10.676;2023-06-14T09:06:28;2.73;;;2.20;;
11125;SDS011;5617;54.046;10.676;2023-06-14T09:08:40;3.03;;;1.90;;
11125;SDS011;5617;54.046;10.676;2023-06-14T09:10:49;3.17;;;2.10;;
11125;SDS011;5617;54.046;10.676;2023-06-14T09:12:58;3.00;;;2.20;;
11125;SDS011;5617;54.046;10.676;2023-06-14T09:15:08;3.20;;;2.07;;
11125;SDS011;5617;54.046;10.676;2023-06-14T09:17:18;2.37;;;2.03;;
11125;SDS011;5617;54.046;10.676;2023-06-14T09:19:27;2.07;;;1.80;;
11125;SDS011;5617;54.046;10.676;2023-06-14T09:21:40;4.50;;;2.13;;
11125;SDS011;5617;54.046;10.676;2023-06-14T09:23:48;3.57;;;1.90;;
11125;SDS011;5617;54.046;10.676;2023-06-14T09:25:56;2.90;;;2.00;;
11125;SDS011;5617;54.046;10.676;2023-06-14T09:28:06;2.47;;;2.00;;
11125;SDS011;5617;54.046;10.676;2023-06-14T09:30:15;5.30;;;1.97;;
11125;SDS011;5617;54.046;10.676;2023-06-14T09:32:24;2.57;;;1.90;;
11125;SDS011;5617;54.046;10.676;2023-06-14T09:34:32;3.40;;;2.00;;
11125;SDS011;5617;54.046;10.676;2023-06-14T09:36:41;3.90;;;2.00;;
11125;SDS011;5617;54.046;10.676;2023-06-14T09:38:53;2.60;;;1.90;;
11125;SDS011;5617;54.046;10.676;2023-06-14T09:41:03;2.90;;;1.70;;
11125;SDS011;5617;54.046;10.676;2023-06-14T09:43:12;3.10;;;2.00;;
11125;SDS011;5617;54.046;10.676;2023-06-14T09:45:20;2.23;;;1.80;;
11125;SDS011;5617;54.046;10.676;2023-06-14T09:47:30;2.93;;;1.90;;
11125;SDS011;5617;54.046;10.676;2023-06-14T09:49:42;2.57;;;2.10;;
11125;SDS011;5617;54.046;10.676;2023-06-14T09:51:50;3.33;;;2.10;;
11125;SDS011;5617;54.046;10.676;2023-06-14T09:54:01;3.10;;;2.00;;
11125;SDS011;5617;54.046;10.676;2023-06-14T09:56:12;3.27;;;2.20;;
11125;SDS011;5617;54.046;10.676;2023-06-14T09:58:28;2.97;;;1.90;;
11125;SDS011;5617;54.046;10.676;2023-06-14T10:00:36;2.70;;;1.97;;
11125;SDS011;5617;54.046;10.676;2023-06-14T10:02:49;4.00;;;2.17;;
11125;SDS011;5617;54.046;10.676;2023-06-14T10:05:02;4.13;;;2.20;;
11125;SDS011;5617;54.046;10.676;2023-06-14T10:07:14;2.30;;;1.70;;
11125;SDS011;5617;54.046;10.676;2023-06-14T10:09:26;2.10;;;1.90;;
11125;SDS011;5617;54.046;10.676;2023-06-14T10:11:39;3.00;;;2.13;;
11125;SDS011;5617;54.046;10.676;2023-06-14T10:13:50;3.27;;;2.30;;
11125;SDS011;5617;54.046;10.676;2023-06-14T10:16:00;2.10;;;1.90;;
11125;SDS011;5617;54.046;10.676;2023-06-14T10:18:18;4.57;;;2.20;;
11125;SDS011;5617;54.046;10.676;2023-06-14T10:20:33;4.50;;;2.03;;
11125;SDS011;5617;54.046;10.676;2023-06-14T10:22:49;2.97;;;2.00;;
11125;SDS011;5617;54.046;10.676;2023-06-14T10:25:01;5.43;;;2.27;;
11125;SDS011;5617;54.046;10.676;2023-06-14T10:27:09;3.67;;;1.73;;
11125;SDS011;5617;54.046;10.676;2023-06-14T10:29:20;2.73;;;1.97;;
11125;SDS011;5617;54.046;10.676;2023-06-14T10:31:39;2.43;;;2.00;;
11125;SDS011;5617;54.046;10.676;2023-06-14T10:33:55;2.70;;;1.50;;
11125;SDS011;5617;54.046;10.676;2023-06-14T10:36:10;5.67;;;1.90;;
11125;SDS011;5617;54.046;10.676;2023-06-14T10:38:37;4.87;;;2.47;;
11125;SDS011;5617;54.046;10.676;2023-06-14T10:40:45;4.80;;;1.60;;
11125;SDS011;5617;54.046;10.676;2023-06-14T10:43:01;3.40;;;2.00;;
11125;SDS011;5617;54.046;10.676;2023-06-14T10:45:29;3.20;;;2.00;;
11125;SDS011;5617;54.046;10.676;2023-06-14T10:47:37;2.50;;;1.90;;
11125;SDS011;5617;54.046;10.676;2023-06-14T10:49:49;2.10;;;1.90;;
11125;SDS011;5617;54.046;10.676;2023-06-14T10:51:58;3.53;;;2.00;;
11125;SDS011;5617;54.046;10.676;2023-06-14T10:54:07;2.70;;;2.23;;
11125;SDS011;5617;54.046;10.676;2023-06-14T10:56:23;2.30;;;1.80;;
11125;SDS011;5617;54.046;10.676;2023-06-14T10:58:33;3.03;;;1.83;;
11125;SDS011;5617;54.046;10.676;2023-06-14T11:00:41;2.57;;;1.87;;
11125;SDS011;5617;54.046;10.676;2023-06-14T11:05:42;2.37;;;1.80;;
11125;SDS011;5617;54.046;10.676;2023-06-14T11:07:58;3.77;;;1.90;;
11125;SDS011;5617;54.046;10.676;2023-06-14T11:10:34;1.70;;;1.60;;
11125;SDS011;5617;54.046;10.676;2023-06-14T11:12:44;2.60;;;1.90;;
11125;SDS011;5617;54.046;10.676;2023-06-14T11:14:56;2.23;;;1.70;;
11125;SDS011;5617;54.046;10.676;2023-06-14T11:17:04;6.73;;;2.00;;
11125;SDS011;5617;54.046;10.676;2023-06-14T11:19:12;1.97;;;1.70;;
11125;SDS011;5617;54.046;10.676;2023-06-14T11:21:21;4.23;;;2.10;;
11125;SDS011;5617;54.046;10.676;2023-06-14T11:23:31;3.60;;;2.00;;
11125;SDS011;5617;54.046;10.676;2023-06-14T11:25:39;3.57;;;2.03;;
11125;SDS011;5617;54.046;10.676;2023-06-14T11:27:48;2.57;;;1.93;;
11125;SDS011;5617;54.046;10.676;2023-06-14T11:29:57;2.70;;;1.80;;
11125;SDS011;5617;54.046;10.676;2023-06-14T11:32:06;1.90;;;1.77;;
11125;SDS011;5617;54.046;10.676;2023-06-14T11:34:18;3.07;;;2.03;;
11125;SDS011;5617;54.046;10.676;2023-06-14T11:36:27;2.97;;;2.00;;
11125;SDS011;5617;54.046;10.676;2023-06-14T11:38:37;2.43;;;2.10;;
11125;SDS011;5617;54.046;10.676;2023-06-14T11:40:45;2.60;;;1.90;;
11125;SDS011;5617;54.046;10.676;2023-06-14T11:42:57;3.00;;;2.00;;
11125;SDS011;5617;54.046;10.676;2023-06-14T11:45:10;2.47;;;2.00;;
11125;SDS011;5617;54.046;10.676;2023-06-14T11:47:19;3.00;;;1.80;;
11125;SDS011;5617;54.046;10.676;2023-06-14T11:49:26;2.00;;;1.50;;
11125;SDS011;5617;54.046;10.676;2023-06-14T11:51:35;4.70;;;2.10;;
11125;SDS011;5617;54.046;10.676;2023-06-14T11:53:44;3.63;;;2.13;;
11125;SDS011;5617;54.046;10.676;2023-06-14T11:55:53;4.17;;;1.83;;
11125;SDS011;5617;54.046;10.676;2023-06-14T11:58:01;4.87;;;2.10;;
11125;SDS011;5617;54.046;10.676;2023-06-14T12:00:10;2.90;;;1.90;;
11125;SDS011;5617;54.046;10.676;2023-06-14T12:02:19;4.03;;;1.93;;
11125;SDS011;5617;54.046;10.676;2023-06-14T12:04:32;2.87;;;1.77;;
11125;SDS011;5617;54.046;10.676;2023-06-14T12:06:41;2.33;;;1.90;;
11125;SDS011;5617;54.046;10.676;2023-06-14T12:08:51;2.47;;;1.87;;
11125;SDS011;5617;54.046;10.676;2023-06-14T12:11:02;2.83;;;1.90;;
11125;SDS011;5617;54.046;10.676;2023-06-14T12:13:10;2.43;;;1.60;;
11125;SDS011;5617;54.046;10.676;2023-06-14T12:15:18;4.97;;;1.80;;
11125;SDS011;5617;54.046;10.676;2023-06-14T12:17:26;2.40;;;1.87;;
11125;SDS011;5617;54.046;10.676;2023-06-14T12:19:42;2.80;;;2.03;;
11125;SDS011;5617;54.046;10.676;2023-06-14T12:21:54;3.93;;;1.93;;
11125;SDS011;5617;54.046;10.676;2023-06-14T12:24:02;2.43;;;2.10;;
11125;SDS011;5617;54.046;10.676;2023-06-14T12:26:14;2.83;;;1.90;;
11125;SDS011;5617;54.046;10.676;2023-06-14T12:28:23;3.03;;;1.90;;
11125;SDS011;5617;54.046;10.676;2023-06-14T12:30:39;1.67;;;1.57;;
11125;SDS011;5617;54.046;10.676;2023-06-14T12:32:48;1.83;;;1.73;;
11125;SDS011;5617;54.046;10.676;2023-06-14T12:34:57;2.60;;;1.67;;
11125;SDS011;5617;54.046;10.676;2023-06-14T12:37:09;3.93;;;2.30;;
11125;SDS011;5617;54.046;10.676;2023-06-14T12:39:17;3.80;;;1.83;;
11125;SDS011;5617;54.046;10.676;2023-06-14T12:41:29;3.37;;;1.90;;
11125;SDS011;5617;54.046;10.676;2023-06-14T12:43:37;2.43;;;1.77;;
11125;SDS011;5617;54.046;10.676;2023-06-14T12:45:46;4.33;;;1.80;;
11125;SDS011;5617;54.046;10.676;2023-06-14T12:47:56;4.07;;;2.10;;
11125;SDS011;5617;54.046;10.676;2023-06-14T12:50:04;2.07;;;1.70;;
11125;SDS011;5617;54.046;10.676;2023-06-14T12:52:15;3.67;;;1.80;;
11125;SDS011;5617;54.046;10.676;2023-06-14T12:54:23;1.90;;;1.70;;
11125;SDS011;5617;54.046;10.676;2023-06-14T12:56:46;2.90;;;1.80;;
11125;SDS011;5617;54.046;10.676;2023-06-14T12:58:57;2.37;;;1.70;;
11125;SDS011;5617;54.046;10.676;2023-06-14T13:01:06;2.83;;;1.60;;
11125;SDS011;5617;54.046;10.676;2023-06-14T13:03:14;1.50;;;1.40;;
11125;SDS011;5617;54.046;10.676;2023-06-14T13:05:23;1.87;;;1.70;;
11125;SDS011;5617;54.046;10.676;2023-06-14T13:07:32;4.83;;;1.80;;
11125;SDS011;5617;54.046;10.676;2023-06-14T13:09:41;3.17;;;1.40;;
11125;SDS011;5617;54.046;10.676;2023-06-14T13:11:49;2.97;;;1.73;;
11125;SDS011;5617;54.046;10.676;2023-06-14T13:13:57;3.20;;;1.70;;